Time;durP1;ratioP1;P1;durP2;ratioP2;P2;SDS_P1;SDS_P2;PMS_P1;PMS_P2;Temp;Humidity;BMP_temperature;BMP_pressure;BME280_temperature;BME280_humidity;BME280_pressure;Samples;Min_cycle;Max_cycle;Signal;HPM_P1;HPM_P2
2022/10/25 00:00:17;;;;;;;25.17;10.30;;;;;;;;;;4454484;32;20669;-88
2022/10/25 00:02:45;;;;;;;27.87;10.63;;;;;;;;;;4454526;32;20568;-87
2022/10/25 00:05:14;;;;;;;30.63;10.03;;;;;;;;;;4454029;32;20615;-88
2022/10/25 00:07:41;;;;;;;33.93;13.33;;;;;;;;;;4454561;32;20217;-88
2022/10/25 00:10:09;;;;;;;34.60;10.57;;;;;;;;;;4453918;32;20229;-88
2022/10/25 00:12:41;;;;;;;26.93;10.90;;;;;;;;;;4454393;32;20274;-88
2022/10/25 00:15:09;;;;;;;23.40;11.77;;;;;;;;;;4454234;32;20224;-88
2022/10/25 00:17:36;;;;;;;29.57;11.00;;;;;;;;;;4454355;32;20253;-87
2022/10/25 00:20:05;;;;;;;27.80;10.50;;;;;;;;;;4454175;32;20299;-87
2022/10/25 00:22:31;;;;;;;32.27;11.60;;;;;;;;;;4453832;32;20553;-87
2022/10/25 00:24:58;;;;;;;26.33;11.33;;;;;;;;;;4454260;32;20232;-87
2022/10/25 00:27:25;;;;;;;30.63;11.70;;;;;;;;;;4454211;32;20209;-87
2022/10/25 00:29:52;;;;;;;25.93;9.97;;;;;;;;;;4454231;32;20284;-85
2022/10/25 00:32:19;;;;;;;33.97;8.67;;;;;;;;;;4453800;32;20224;-85
2022/10/25 00:34:46;;;;;;;25.27;9.33;;;;;;;;;;4453946;32;20208;-87
2022/10/25 00:37:14;;;;;;;26.40;9.80;;;;;;;;;;4454057;32;20268;-87
2022/10/25 00:39:41;;;;;;;29.70;9.17;;;;;;;;;;4453531;32;20572;-87
2022/10/25 00:42:11;;;;;;;22.03;8.13;;;;;;;;;;4453958;32;20209;-87
2022/10/25 00:44:49;;;;;;;25.27;9.87;;;;;;;;;;4453874;32;20220;-87
2022/10/25 00:47:52;;;;;;;33.70;11.37;;;;;;;;;;4453994;32;20227;-87
2022/10/25 00:50:30;;;;;;;35.33;9.93;;;;;;;;;;4390358;32;20402;-87
2022/10/25 00:53:05;;;;;;;28.03;10.83;;;;;;;;;;4442365;32;20220;-87
2022/10/25 00:55:32;;;;;;;33.67;11.50;;;;;;;;;;4453583;32;20223;-87
2022/10/25 00:58:03;;;;;;;46.07;15.77;;;;;;;;;;4453826;32;20217;-87
2022/10/25 01:00:30;;;;;;;27.20;11.53;;;;;;;;;;4453335;32;20618;-87
2022/10/25 01:02:57;;;;;;;30.27;12.40;;;;;;;;;;4453865;32;20216;-88
2022/10/25 01:05:24;;;;;;;40.43;12.27;;;;;;;;;;4453565;32;20311;-88
2022/10/25 01:07:51;;;;;;;35.03;10.67;;;;;;;;;;4453748;32;20216;-88
2022/10/25 01:10:19;;;;;;;34.30;12.20;;;;;;;;;;4453580;32;20288;-88
2022/10/25 01:12:46;;;;;;;38.33;13.27;;;;;;;;;;4453267;32;20208;-87
2022/10/25 01:15:13;;;;;;;26.47;13.53;;;;;;;;;;4453443;32;20284;-88
2022/10/25 01:17:48;;;;;;;25.53;11.77;;;;;;;;;;4453724;32;20209;-88
2022/10/25 01:20:54;;;;;;;32.60;11.43;;;;;;;;;;4453583;32;20270;-87
2022/10/25 01:23:44;;;;;;;22.90;10.63;;;;;;;;;;4427441;32;20618;-88
2022/10/25 01:26:39;;;;;;;29.13;10.80;;;;;;;;;;4453605;32;20292;-87
2022/10/25 01:29:30;;;;;;;23.43;9.10;;;;;;;;;;4453631;32;20638;-88
2022/10/25 01:32:04;;;;;;;30.90;11.47;;;;;;;;;;4453563;32;20249;-87
2022/10/25 01:34:36;;;;;;;28.53;11.80;;;;;;;;;;4453360;32;20204;-87
2022/10/25 01:37:11;;;;;;;27.20;11.00;;;;;;;;;;4453462;32;20613;-87
2022/10/25 01:39:43;;;;;;;29.90;12.27;;;;;;;;;;4453229;32;20207;-88
2022/10/25 01:42:20;;;;;;;30.47;11.83;;;;;;;;;;4453468;32;20212;-87
2022/10/25 01:44:54;;;;;;;27.20;13.07;;;;;;;;;;4452761;32;20579;-87
2022/10/25 01:47:28;;;;;;;66.30;25.23;;;;;;;;;;4453326;32;20701;-87
2022/10/25 01:50:00;;;;;;;93.07;41.17;;;;;;;;;;4453100;32;20661;-87
2022/10/25 01:52:27;;;;;;;117.13;53.40;;;;;;;;;;4453201;32;20220;-87
2022/10/25 01:54:54;;;;;;;96.07;38.70;;;;;;;;;;4452939;32;20292;-88
2022/10/25 01:57:38;;;;;;;86.53;33.97;;;;;;;;;;4453180;32;20213;-87
2022/10/25 02:00:08;;;;;;;62.50;23.37;;;;;;;;;;4452965;32;20315;-87
2022/10/25 02:02:45;;;;;;;56.20;20.37;;;;;;;;;;4453209;32;20245;-87
2022/10/25 02:05:20;;;;;;;42.07;15.30;;;;;;;;;;4455331;32;20264;-87
2022/10/25 02:07:58;;;;;;;37.47;15.93;;;;;;;;;;4456613;32;20272;-87
2022/10/25 02:10:29;;;;;;;28.10;11.57;;;;;;;;;;4456084;32;20739;-87
2022/10/25 02:12:58;;;;;;;27.40;10.67;;;;;;;;;;4456290;32;20693;-87
2022/10/25 02:15:32;;;;;;;33.13;10.57;;;;;;;;;;4455762;32;20307;-87
2022/10/25 02:18:04;;;;;;;39.10;14.20;;;;;;;;;;4456217;32;20208;-87
2022/10/25 02:20:34;;;;;;;31.10;13.60;;;;;;;;;;4455844;32;20242;-87
2022/10/25 02:23:04;;;;;;;36.17;16.10;;;;;;;;;;4455975;32;20216;-87
2022/10/25 02:25:33;;;;;;;34.60;16.37;;;;;;;;;;4455754;32;20245;-87
2022/10/25 02:28:03;;;;;;;34.17;13.57;;;;;;;;;;4456054;32;20638;-87
2022/10/25 02:30:33;;;;;;;30.40;12.67;;;;;;;;;;4455862;32;20653;-88
2022/10/25 02:33:02;;;;;;;24.07;10.33;;;;;;;;;;4457691;32;20234;-87
2022/10/25 02:35:29;;;;;;;29.27;8.97;;;;;;;;;;4456436;32;20677;-87
2022/10/25 02:37:55;;;;;;;25.10;7.97;;;;;;;;;;4455975;32;20332;-87
2022/10/25 02:40:22;;;;;;;24.90;8.47;;;;;;;;;;4455877;32;20300;-87
2022/10/25 02:42:49;;;;;;;22.43;7.73;;;;;;;;;;4455697;32;20220;-87
2022/10/25 02:45:16;;;;;;;34.43;8.17;;;;;;;;;;4455241;32;20239;-87
2022/10/25 02:47:43;;;;;;;33.97;10.13;;;;;;;;;;4455678;32;20217;-87
2022/10/25 02:50:11;;;;;;;32.20;8.27;;;;;;;;;;4455099;32;20224;-87
2022/10/25 02:52:38;;;;;;;24.23;7.67;;;;;;;;;;4455661;32;20227;-87
2022/10/25 02:55:06;;;;;;;22.10;8.40;;;;;;;;;;4455005;32;20693;-87
2022/10/25 02:57:33;;;;;;;23.97;9.03;;;;;;;;;;4455108;32;20227;-87
2022/10/25 03:00:00;;;;;;;30.00;9.60;;;;;;;;;;4455321;32;20224;-87
2022/10/25 03:02:27;;;;;;;33.77;8.87;;;;;;;;;;4455457;32;20227;-87
2022/10/25 03:04:54;;;;;;;27.50;9.03;;;;;;;;;;4455431;32;20232;-87
2022/10/25 03:07:22;;;;;;;19.03;7.60;;;;;;;;;;4455440;32;20212;-87
2022/10/25 03:09:49;;;;;;;30.63;9.37;;;;;;;;;;4454923;32;20238;-87
2022/10/25 03:12:16;;;;;;;25.73;9.40;;;;;;;;;;4455370;32;20313;-87
2022/10/25 03:14:42;;;;;;;24.53;10.33;;;;;;;;;;4455113;32;20208;-87
2022/10/25 03:17:09;;;;;;;25.83;9.70;;;;;;;;;;4454717;32;20212;-87
2022/10/25 03:19:36;;;;;;;35.13;10.50;;;;;;;;;;4454647;32;20674;-87
2022/10/25 03:22:03;;;;;;;27.73;10.40;;;;;;;;;;4455289;32;20270;-87
2022/10/25 03:24:31;;;;;;;30.00;9.63;;;;;;;;;;4454959;32;20273;-87
2022/10/25 03:26:57;;;;;;;24.27;9.37;;;;;;;;;;4454747;32;20213;-87
2022/10/25 03:29:24;;;;;;;31.53;9.43;;;;;;;;;;4456742;32;20216;-88
2022/10/25 03:31:51;;;;;;;20.93;10.07;;;;;;;;;;4454402;32;20242;-87
2022/10/25 03:34:18;;;;;;;27.23;10.10;;;;;;;;;;4454602;32;20208;-87
2022/10/25 03:36:44;;;;;;;32.80;9.33;;;;;;;;;;4454294;32;20249;-87
2022/10/25 03:39:11;;;;;;;41.43;10.00;;;;;;;;;;4454902;32;20230;-87
2022/10/25 03:41:40;;;;;;;26.10;9.47;;;;;;;;;;4454393;32;20631;-87
2022/10/25 03:44:06;;;;;;;27.33;11.00;;;;;;;;;;4454906;32;20299;-87
2022/10/25 03:46:33;;;;;;;26.87;10.37;;;;;;;;;;4454772;32;20232;-87
2022/10/25 03:49:00;;;;;;;29.13;12.57;;;;;;;;;;4454948;32;20705;-87
2022/10/25 03:51:26;;;;;;;32.73;11.07;;;;;;;;;;4454412;32;20311;-87
2022/10/25 03:53:53;;;;;;;27.80;9.80;;;;;;;;;;4454890;32;20213;-87
2022/10/25 03:56:20;;;;;;;34.03;10.57;;;;;;;;;;4454232;32;20281;-87
2022/10/25 03:58:48;;;;;;;39.93;9.77;;;;;;;;;;4454639;32;20351;-87
2022/10/25 04:01:15;;;;;;;30.20;11.80;;;;;;;;;;4454095;32;20551;-87
2022/10/25 04:03:43;;;;;;;27.00;10.93;;;;;;;;;;4454564;32;20216;-87
2022/10/25 04:06:10;;;;;;;25.93;11.77;;;;;;;;;;4455083;32;20656;-88
2022/10/25 04:08:37;;;;;;;23.70;11.53;;;;;;;;;;4454371;32;20707;-88
2022/10/25 04:11:04;;;;;;;31.67;12.90;;;;;;;;;;4454616;32;20339;-87
2022/10/25 04:13:31;;;;;;;32.70;13.07;;;;;;;;;;4454632;32;20637;-87
2022/10/25 04:15:59;;;;;;;36.63;11.47;;;;;;;;;;4454034;32;20232;-87
2022/10/25 04:18:26;;;;;;;35.93;15.60;;;;;;;;;;4454516;32;20247;-87
2022/10/25 04:20:52;;;;;;;29.03;11.37;;;;;;;;;;4454018;32;20224;-87
2022/10/25 04:23:19;;;;;;;34.07;12.57;;;;;;;;;;4454309;32;20247;-87
2022/10/25 04:25:46;;;;;;;36.40;11.07;;;;;;;;;;4453841;32;20239;-87
2022/10/25 04:28:13;;;;;;;28.37;10.37;;;;;;;;;;4453485;32;20208;-87
2022/10/25 04:30:39;;;;;;;30.63;12.30;;;;;;;;;;4453852;32;20246;-87
2022/10/25 04:33:07;;;;;;;31.30;11.43;;;;;;;;;;4453616;32;20360;-87
2022/10/25 04:35:34;;;;;;;27.90;11.00;;;;;;;;;;4453475;32;20282;-87
2022/10/25 04:38:01;;;;;;;34.93;17.73;;;;;;;;;;4453892;32;20216;-87
2022/10/25 04:40:28;;;;;;;50.70;16.53;;;;;;;;;;4453512;32;20673;-87
2022/10/25 04:42:54;;;;;;;40.63;17.80;;;;;;;;;;4454025;32;20257;-87
2022/10/25 04:45:21;;;;;;;53.47;15.87;;;;;;;;;;4453115;32;20229;-87
2022/10/25 04:47:48;;;;;;;33.63;16.70;;;;;;;;;;4453612;32;20277;-87
2022/10/25 04:50:16;;;;;;;44.20;17.73;;;;;;;;;;4453839;32;20666;-88
2022/10/25 04:52:43;;;;;;;30.97;16.53;;;;;;;;;;4453724;32;20208;-87
2022/10/25 04:55:10;;;;;;;40.30;17.87;;;;;;;;;;4454305;32;20690;-87
2022/10/25 04:57:37;;;;;;;40.87;14.47;;;;;;;;;;4454187;32;20363;-87
2022/10/25 05:00:04;;;;;;;34.43;15.53;;;;;;;;;;4453926;32;20233;-87
2022/10/25 05:02:31;;;;;;;44.97;17.40;;;;;;;;;;4452958;32;20209;-87
2022/10/25 05:04:58;;;;;;;44.00;19.63;;;;;;;;;;4452964;32;20236;-87
2022/10/25 05:07:26;;;;;;;55.00;20.17;;;;;;;;;;4453073;32;20273;-87
2022/10/25 05:09:53;;;;;;;61.93;22.77;;;;;;;;;;4452206;32;20583;-86
2022/10/25 05:12:20;;;;;;;48.70;22.13;;;;;;;;;;4451833;32;20220;-87
2022/10/25 05:14:46;;;;;;;55.10;23.73;;;;;;;;;;4452012;32;20283;-87
2022/10/25 05:17:13;;;;;;;58.97;24.33;;;;;;;;;;4453692;32;20216;-87
2022/10/25 05:19:40;;;;;;;54.87;26.07;;;;;;;;;;4454464;32;20230;-87
2022/10/25 05:22:06;;;;;;;95.40;44.70;;;;;;;;;;4452481;32;20290;-87
2022/10/25 05:24:35;;;;;;;119.97;62.63;;;;;;;;;;4452551;32;20221;-87
2022/10/25 05:27:01;;;;;;;131.60;68.20;;;;;;;;;;4452610;32;20212;-87
2022/10/25 05:29:28;;;;;;;109.73;63.90;;;;;;;;;;4452589;32;20587;-87
2022/10/25 05:31:55;;;;;;;116.97;61.03;;;;;;;;;;4452088;32;20277;-87
2022/10/25 05:34:22;;;;;;;129.60;61.53;;;;;;;;;;4452180;32;20217;-87
2022/10/25 05:36:49;;;;;;;116.13;59.23;;;;;;;;;;4451529;32;20244;-87
2022/10/25 05:39:15;;;;;;;110.17;58.20;;;;;;;;;;4452227;32;20277;-87
2022/10/25 05:41:44;;;;;;;104.03;52.63;;;;;;;;;;4452045;32;20296;-87
2022/10/25 05:44:10;;;;;;;91.73;44.50;;;;;;;;;;4452526;32;20224;-87
2022/10/25 05:46:38;;;;;;;73.00;31.97;;;;;;;;;;4451766;32;20303;-87
2022/10/25 05:49:04;;;;;;;59.53;24.57;;;;;;;;;;4452114;32;20221;-87
2022/10/25 05:51:33;;;;;;;58.23;26.20;;;;;;;;;;4452192;32;20247;-87
2022/10/25 05:54:02;;;;;;;59.47;26.27;;;;;;;;;;4452801;32;20261;-87
2022/10/25 05:56:30;;;;;;;60.30;25.17;;;;;;;;;;4451930;32;20233;-87
2022/10/25 05:59:02;;;;;;;53.57;23.37;;;;;;;;;;4452292;32;20298;-87
2022/10/25 06:01:29;;;;;;;41.20;24.70;;;;;;;;;;4452568;32;20223;-88
2022/10/25 06:03:56;;;;;;;57.77;24.50;;;;;;;;;;4452219;32;20276;-87
2022/10/25 06:06:23;;;;;;;60.37;23.40;;;;;;;;;;4451187;32;20229;-87
2022/10/25 06:08:55;;;;;;;50.00;20.57;;;;;;;;;;4451663;32;20312;-87
2022/10/25 06:11:22;;;;;;;48.43;20.00;;;;;;;;;;4451224;32;20233;-87
2022/10/25 06:13:49;;;;;;;53.30;19.40;;;;;;;;;;4451603;32;20220;-87
2022/10/25 06:16:19;;;;;;;44.30;19.93;;;;;;;;;;4451727;32;20229;-88
2022/10/25 06:18:46;;;;;;;52.60;22.03;;;;;;;;;;4453721;32;20281;-88
2022/10/25 06:21:15;;;;;;;61.80;21.37;;;;;;;;;;4452279;32;20225;-88
2022/10/25 06:23:43;;;;;;;51.87;22.73;;;;;;;;;;4452696;32;20228;-88
2022/10/25 06:26:11;;;;;;;54.47;18.47;;;;;;;;;;4452342;32;20228;-88
2022/10/25 06:28:39;;;;;;;75.87;21.43;;;;;;;;;;4452532;32;20319;-87
2022/10/25 06:31:07;;;;;;;48.17;20.43;;;;;;;;;;4452700;32;20236;-88
2022/10/25 06:33:36;;;;;;;37.20;18.13;;;;;;;;;;4452310;32;20280;-88
2022/10/25 06:36:04;;;;;;;42.17;18.00;;;;;;;;;;4458894;32;20233;-87
2022/10/25 06:38:31;;;;;;;53.13;19.87;;;;;;;;;;4455314;32;20565;-88
2022/10/25 06:41:02;;;;;;;36.03;17.93;;;;;;;;;;4457027;32;20246;-88
2022/10/25 06:43:31;;;;;;;41.90;18.83;;;;;;;;;;4456454;32;20238;-88
2022/10/25 06:45:59;;;;;;;46.70;19.80;;;;;;;;;;4439591;32;20327;-88
2022/10/25 06:48:25;;;;;;;42.10;19.53;;;;;;;;;;4455076;32;20253;-88
2022/10/25 06:51:03;;;;;;;44.30;22.23;;;;;;;;;;4454648;32;20303;-88
2022/10/25 06:53:30;;;;;;;102.27;48.93;;;;;;;;;;4457065;32;20275;-88
2022/10/25 06:56:00;;;;;;;106.30;47.67;;;;;;;;;;4456022;32;20233;-86
2022/10/25 06:58:27;;;;;;;102.20;47.13;;;;;;;;;;4454722;32;20268;-85
2022/10/25 07:00:54;;;;;;;94.33;48.90;;;;;;;;;;4454783;32;20228;-86
2022/10/25 07:03:28;;;;;;;89.60;40.40;;;;;;;;;;4454836;32;20269;-85
2022/10/25 07:05:55;;;;;;;78.33;41.80;;;;;;;;;;4455615;32;20288;-90
2022/10/25 07:08:23;;;;;;;75.83;41.57;;;;;;;;;;4455754;32;20232;-85
2022/10/25 07:10:53;;;;;;;77.77;40.43;;;;;;;;;;4454739;32;20603;-88
2022/10/25 07:13:21;;;;;;;76.73;39.50;;;;;;;;;;4453761;32;20212;-87
2022/10/25 07:15:48;;;;;;;80.37;35.57;;;;;;;;;;4453956;32;20228;-87
2022/10/25 07:18:14;;;;;;;55.00;31.50;;;;;;;;;;4454300;32;20273;-86
2022/10/25 07:20:45;;;;;;;72.07;28.60;;;;;;;;;;4453922;32;20228;-86
2022/10/25 07:23:12;;;;;;;54.97;24.90;;;;;;;;;;4454254;32;20257;-86
2022/10/25 07:25:40;;;;;;;39.53;24.87;;;;;;;;;;4453606;32;20309;-86
2022/10/25 07:28:11;;;;;;;62.23;28.13;;;;;;;;;;4454048;32;20224;-86
2022/10/25 07:30:37;;;;;;;105.50;49.33;;;;;;;;;;4454241;32;20584;-86
2022/10/25 07:33:04;;;;;;;81.63;38.53;;;;;;;;;;4453689;32;20220;-86
2022/10/25 07:35:32;;;;;;;75.43;35.80;;;;;;;;;;4454141;32;20237;-88
2022/10/25 07:37:59;;;;;;;49.17;24.20;;;;;;;;;;4454705;32;20284;-86
2022/10/25 07:40:26;;;;;;;48.37;20.33;;;;;;;;;;4454698;32;20228;-86
2022/10/25 07:42:54;;;;;;;48.33;18.37;;;;;;;;;;4454095;32;20238;-86
2022/10/25 07:45:21;;;;;;;42.73;16.57;;;;;;;;;;4454572;32;20229;-86
2022/10/25 07:47:51;;;;;;;33.07;15.40;;;;;;;;;;4457043;32;20277;-86
2022/10/25 07:50:19;;;;;;;44.90;19.97;;;;;;;;;;4456889;32;20597;-87
2022/10/25 07:52:46;;;;;;;45.10;20.00;;;;;;;;;;4457573;32;20288;-86
2022/10/25 07:55:13;;;;;;;39.37;17.03;;;;;;;;;;4459531;32;20250;-87
2022/10/25 07:57:40;;;;;;;38.00;16.40;;;;;;;;;;4459573;32;20225;-86
2022/10/25 08:00:12;;;;;;;46.43;17.47;;;;;;;;;;4462318;32;20253;-86
2022/10/25 08:02:39;;;;;;;38.13;16.33;;;;;;;;;;4458528;32;20286;-86
2022/10/25 08:05:08;;;;;;;43.50;15.33;;;;;;;;;;4457358;32;20235;-86
2022/10/25 08:07:35;;;;;;;38.17;14.07;;;;;;;;;;4456032;32;20228;-86
2022/10/25 08:10:01;;;;;;;38.37;16.77;;;;;;;;;;4455976;32;20258;-87
2022/10/25 08:12:28;;;;;;;32.83;14.23;;;;;;;;;;4455079;32;20561;-87
2022/10/25 08:14:55;;;;;;;39.97;12.20;;;;;;;;;;4455639;32;20736;-87
2022/10/25 08:17:23;;;;;;;49.60;12.33;;;;;;;;;;4458399;32;20217;-89
2022/10/25 08:19:50;;;;;;;35.17;13.18;;;;;;;;;;4456652;32;20633;-87
2022/10/25 08:22:17;;;;;;;38.67;11.80;;;;;;;;;;4454177;32;20216;-88
2022/10/25 08:24:43;;;;;;;36.40;11.83;;;;;;;;;;4454287;32;20549;-87
2022/10/25 08:27:10;;;;;;;45.90;12.40;;;;;;;;;;4454311;32;20217;-87
2022/10/25 08:29:37;;;;;;;35.67;14.02;;;;;;;;;;4455216;32;20603;-87
2022/10/25 08:32:05;;;;;;;43.80;16.13;;;;;;;;;;4456358;32;20220;-86
2022/10/25 08:34:33;;;;;;;26.73;12.20;;;;;;;;;;4456213;32;20276;-87
2022/10/25 08:37:06;;;;;;;41.63;15.87;;;;;;;;;;4457602;32;20231;-87
2022/10/25 08:39:33;;;;;;;31.93;12.33;;;;;;;;;;4456414;32;20213;-88
2022/10/25 08:42:02;;;;;;;40.45;12.10;;;;;;;;;;4458384;32;20313;-87
2022/10/25 08:44:44;;;;;;;40.47;13.43;;;;;;;;;;4454561;32;20294;-88
2022/10/25 08:47:18;;;;;;;35.40;14.68;;;;;;;;;;4453468;32;20220;-88
2022/10/25 08:49:55;;;;;;;34.83;11.98;;;;;;;;;;4452852;32;20582;-88
2022/10/25 08:52:30;;;;;;;41.60;11.33;;;;;;;;;;4453779;32;20542;-88
2022/10/25 08:55:02;;;;;;;36.95;12.27;;;;;;;;;;4454135;32;20283;-88
2022/10/25 08:57:32;;;;;;;32.63;11.43;;;;;;;;;;4453983;32;20293;-89
2022/10/25 09:00:06;;;;;;;41.17;12.20;;;;;;;;;;4455683;32;20299;-88
2022/10/25 09:02:39;;;;;;;34.17;11.43;;;;;;;;;;4453865;32;20208;-87
2022/10/25 09:05:16;;;;;;;31.92;12.02;;;;;;;;;;4453308;32;20250;-88
2022/10/25 09:08:03;;;;;;;43.80;13.67;;;;;;;;;;4457104;32;20279;-87
2022/10/25 09:10:43;;;;;;;33.60;11.97;;;;;;;;;;4456193;32;20299;-88
2022/10/25 09:13:25;;;;;;;37.05;12.10;;;;;;;;;;4455602;32;20226;-88
2022/10/25 09:16:00;;;;;;;30.40;12.00;;;;;;;;;;4454690;32;20308;-88
2022/10/25 09:18:35;;;;;;;31.40;10.53;;;;;;;;;;4453759;32;20293;-88
2022/10/25 09:21:09;;;;;;;27.65;11.07;;;;;;;;;;4452680;32;20661;-89
2022/10/25 09:23:36;;;;;;;44.42;11.35;;;;;;;;;;4453357;32;20216;-88
2022/10/25 09:26:08;;;;;;;28.73;11.50;;;;;;;;;;4452134;32;20232;-88
2022/10/25 09:28:50;;;;;;;28.48;10.00;;;;;;;;;;4452420;32;20594;-88
2022/10/25 09:31:23;;;;;;;49.17;17.48;;;;;;;;;;4453175;32;20247;-88
2022/10/25 09:33:54;;;;;;;21.83;11.07;;;;;;;;;;4451701;32;20224;-88
2022/10/25 09:36:23;;;;;;;38.25;14.48;;;;;;;;;;4452121;32;20248;-88
2022/10/25 09:38:53;;;;;;;44.88;12.25;;;;;;;;;;4454437;32;20307;-88
2022/10/25 09:41:26;;;;;;;33.17;13.25;;;;;;;;;;4451943;32;20303;-88
2022/10/25 09:43:58;;;;;;;38.40;13.43;;;;;;;;;;4452192;32;20230;-89
2022/10/25 09:46:32;;;;;;;38.90;13.23;;;;;;;;;;4451491;32;20232;-88
2022/10/25 09:49:03;;;;;;;36.78;13.10;;;;;;;;;;4452628;32;20212;-89
2022/10/25 09:51:35;;;;;;;26.45;11.32;;;;;;;;;;4451896;32;20296;-89
2022/10/25 09:54:13;;;;;;;36.28;12.23;;;;;;;;;;4452152;32;20599;-88
2022/10/25 09:56:39;;;;;;;39.28;12.57;;;;;;;;;;4451782;32;20295;-88
2022/10/25 09:59:06;;;;;;;26.73;12.07;;;;;;;;;;4451640;32;20711;-88
2022/10/25 10:01:37;;;;;;;44.33;12.23;;;;;;;;;;4451618;32;20633;-88
2022/10/25 10:04:23;;;;;;;33.55;11.75;;;;;;;;;;4451822;32;20272;-89
2022/10/25 10:06:56;;;;;;;37.03;13.70;;;;;;;;;;4451948;32;20697;-89
2022/10/25 10:09:25;;;;;;;34.17;13.38;;;;;;;;;;4453334;32;20644;-88
2022/10/25 10:11:53;;;;;;;36.13;14.85;;;;;;;;;;4452006;32;20281;-88
2022/10/25 10:14:26;;;;;;;67.50;14.98;;;;;;;;;;4452492;32;20325;-89
2022/10/25 10:16:56;;;;;;;38.13;13.98;;;;;;;;;;4452349;32;20237;-88
2022/10/25 10:19:25;;;;;;;38.28;12.93;;;;;;;;;;4452152;32;20287;-89
2022/10/25 10:21:56;;;;;;;33.92;11.07;;;;;;;;;;4451385;32;20228;-89
2022/10/25 10:24:25;;;;;;;33.50;12.07;;;;;;;;;;4452208;32;20268;-88
2022/10/25 10:26:56;;;;;;;37.45;15.82;;;;;;;;;;4453026;32;20224;-89
2022/10/25 10:29:24;;;;;;;38.60;12.70;;;;;;;;;;4455522;32;20239;-89
2022/10/25 10:31:53;;;;;;;34.58;11.75;;;;;;;;;;4454834;32;20239;-89
2022/10/25 10:34:26;;;;;;;42.80;13.13;;;;;;;;;;4455088;32;20298;-88
2022/10/25 10:37:20;;;;;;;34.70;9.88;;;;;;;;;;4455377;32;20220;-89
2022/10/25 10:39:49;;;;;;;27.05;11.57;;;;;;;;;;4444429;32;20358;-88
2022/10/25 10:42:17;;;;;;;35.95;11.57;;;;;;;;;;4455821;32;20205;-88
2022/10/25 10:45:02;;;;;;;33.03;10.77;;;;;;;;;;4456631;32;20220;-89
2022/10/25 10:47:33;;;;;;;42.90;11.23;;;;;;;;;;4455541;32;20277;-88
2022/10/25 10:50:01;;;;;;;38.78;9.50;;;;;;;;;;4455359;32;20221;-88
2022/10/25 10:52:31;;;;;;;32.35;10.95;;;;;;;;;;4454674;32;20475;-88
2022/10/25 10:54:59;;;;;;;30.00;10.35;;;;;;;;;;4454912;32;20611;-88
2022/10/25 10:57:31;;;;;;;34.72;9.25;;;;;;;;;;4455813;32;20213;-88
2022/10/25 10:59:59;;;;;;;25.80;8.57;;;;;;;;;;4455764;32;20588;-88
2022/10/25 11:02:38;;;;;;;24.15;8.82;;;;;;;;;;4456625;32;20205;-88
2022/10/25 11:05:19;;;;;;;32.63;11.25;;;;;;;;;;4456337;32;20284;-88
2022/10/25 11:07:53;;;;;;;34.47;9.95;;;;;;;;;;4457110;32;20212;-88
2022/10/25 11:10:28;;;;;;;26.98;9.90;;;;;;;;;;4456228;32;20298;-88
2022/10/25 11:13:24;;;;;;;37.70;9.75;;;;;;;;;;4456728;32;20204;-88
2022/10/25 11:16:10;;;;;;;26.85;9.20;;;;;;;;;;4429295;32;20267;-88
2022/10/25 11:18:49;;;;;;;29.85;10.38;;;;;;;;;;4456326;32;20217;-88
2022/10/25 11:21:32;;;;;;;23.83;8.77;;;;;;;;;;4455669;32;20682;-88
2022/10/25 11:24:13;;;;;;;30.52;10.77;;;;;;;;;;4455926;32;20264;-88
2022/10/25 11:26:49;;;;;;;28.27;10.30;;;;;;;;;;4456647;32;20287;-88
2022/10/25 11:29:27;;;;;;;31.05;9.02;;;;;;;;;;4455544;32;20208;-88
2022/10/25 11:32:01;;;;;;;36.53;10.00;;;;;;;;;;4454926;32;20247;-88
2022/10/25 11:34:39;;;;;;;39.13;10.10;;;;;;;;;;4455111;32;20256;-88
2022/10/25 11:37:14;;;;;;;32.67;11.45;;;;;;;;;;4454391;32;20244;-88
2022/10/25 11:39:58;;;;;;;33.55;11.00;;;;;;;;;;4455111;32;20260;-88
2022/10/25 11:42:52;;;;;;;32.25;10.65;;;;;;;;;;4454855;32;20220;-88
2022/10/25 11:45:23;;;;;;;37.92;10.32;;;;;;;;;;4454425;32;20229;-88
2022/10/25 11:48:05;;;;;;;44.67;10.38;;;;;;;;;;4454470;32;20589;-88
2022/10/25 11:50:38;;;;;;;30.35;10.75;;;;;;;;;;4454290;32;20563;-88
2022/10/25 11:53:21;;;;;;;24.35;9.85;;;;;;;;;;4454985;32;20280;-88
2022/10/25 11:55:54;;;;;;;34.10;12.65;;;;;;;;;;4454521;32;20217;-88
2022/10/25 11:58:40;;;;;;;34.72;10.73;;;;;;;;;;4455022;32;20234;-89
2022/10/25 12:01:23;;;;;;;37.40;12.25;;;;;;;;;;4454302;32;20624;-88
2022/10/25 12:04:07;;;;;;;34.42;11.32;;;;;;;;;;4455261;32;20237;-87
2022/10/25 12:06:40;;;;;;;33.33;10.50;;;;;;;;;;4455379;32;20216;-89
2022/10/25 12:09:20;;;;;;;32.45;10.60;;;;;;;;;;4454672;32;20264;-89
2022/10/25 12:11:53;;;;;;;28.23;10.68;;;;;;;;;;4454051;32;20268;-88
2022/10/25 12:14:28;;;;;;;34.97;10.70;;;;;;;;;;4454611;32;20359;-89
2022/10/25 12:16:56;;;;;;;35.35;12.18;;;;;;;;;;4454601;32;20212;-88
2022/10/25 12:19:27;;;;;;;41.22;11.48;;;;;;;;;;4454341;32;20212;-89
2022/10/25 12:22:01;;;;;;;29.48;10.30;;;;;;;;;;4454289;32;20284;-88
2022/10/25 12:24:35;;;;;;;32.35;10.57;;;;;;;;;;4454239;32;20216;-89
2022/10/25 12:27:04;;;;;;;27.45;10.73;;;;;;;;;;4454401;32;20242;-89
2022/10/25 12:29:35;;;;;;;23.92;9.57;;;;;;;;;;4454096;32;20291;-88
2022/10/25 12:32:10;;;;;;;27.13;8.63;;;;;;;;;;4453877;32;20209;-89
2022/10/25 12:34:42;;;;;;;37.83;10.38;;;;;;;;;;4454123;32;20216;-89
2022/10/25 12:37:15;;;;;;;25.65;9.88;;;;;;;;;;4454241;32;20642;-89
2022/10/25 12:39:43;;;;;;;36.95;10.38;;;;;;;;;;4453997;32;20242;-89
2022/10/25 12:42:17;;;;;;;39.85;9.57;;;;;;;;;;4454168;32;20230;-89
2022/10/25 12:45:07;;;;;;;42.22;10.45;;;;;;;;;;4453982;32;20630;-89
2022/10/25 12:47:48;;;;;;;30.80;8.90;;;;;;;;;;4419841;32;20254;-89
2022/10/25 12:51:12;;;;;;;46.33;16.65;;;;;;;;;;4453439;32;20267;-89
2022/10/25 12:54:12;;;;;;;59.53;27.95;;;;;;;;;;4390707;32;20252;-89
2022/10/25 12:56:49;;;;;;;40.30;11.40;;;;;;;;;;4389935;32;20276;-89
2022/10/25 12:59:34;;;;;;;44.95;13.07;;;;;;;;;;4446758;32;20224;-89
2022/10/25 13:02:17;;;;;;;33.03;10.55;;;;;;;;;;4453873;32;20301;-89
2022/10/25 13:05:32;;;;;;;26.30;8.80;;;;;;;;;;4453636;32;20264;-90
2022/10/25 13:08:03;;;;;;;36.05;8.30;;;;;;;;;;4438008;32;20694;-90
2022/10/25 13:10:39;;;;;;;31.42;8.10;;;;;;;;;;4453482;32;20225;-90
2022/10/25 13:13:15;;;;;;;36.67;7.00;;;;;;;;;;4453956;32;20265;-89
2022/10/25 13:15:47;;;;;;;30.67;7.65;;;;;;;;;;4454224;32;20258;-90
2022/10/25 13:18:28;;;;;;;16.00;7.00;;;;;;;;;;4455391;32;20621;-89
2022/10/25 13:20:55;;;;;;;31.90;6.93;;;;;;;;;;4453312;32;20239;-89
2022/10/25 13:23:59;;;;;;;28.58;7.90;;;;;;;;;;4453550;32;20221;-89
2022/10/25 13:26:32;;;;;;;27.05;7.28;;;;;;;;;;4452709;32;20644;-89
2022/10/25 13:29:01;;;;;;;35.70;8.00;;;;;;;;;;4453527;32;20246;-89
2022/10/25 13:31:57;;;;;;;29.55;7.60;;;;;;;;;;4452564;32;20225;-88
2022/10/25 13:34:33;;;;;;;21.87;7.07;;;;;;;;;;4453365;32;20205;-89
2022/10/25 13:37:01;;;;;;;21.75;6.85;;;;;;;;;;4453384;32;20686;-89
2022/10/25 13:39:35;;;;;;;27.42;8.48;;;;;;;;;;4452895;32;20224;-89
2022/10/25 13:42:10;;;;;;;24.67;7.37;;;;;;;;;;4452453;32;20204;-88
2022/10/25 13:44:39;;;;;;;27.95;9.40;;;;;;;;;;4453064;32;20212;-89
2022/10/25 13:47:28;;;;;;;25.67;6.97;;;;;;;;;;4452769;32;20261;-89
2022/10/25 13:49:55;;;;;;;26.95;8.82;;;;;;;;;;4452835;32;20691;-89
2022/10/25 13:52:26;;;;;;;37.40;8.07;;;;;;;;;;4453141;32;20668;-87
2022/10/25 13:54:55;;;;;;;35.67;8.93;;;;;;;;;;4452805;32;20637;-87
2022/10/25 13:57:47;;;;;;;37.47;8.85;;;;;;;;;;4452846;32;20209;-87
2022/10/25 14:00:34;;;;;;;34.97;9.85;;;;;;;;;;4452746;32;20299;-89
2022/10/25 14:03:33;;;;;;;33.15;8.85;;;;;;;;;;4453075;32;20371;-88
2022/10/25 14:06:09;;;;;;;32.90;9.25;;;;;;;;;;4452289;32;20252;-87
2022/10/25 14:08:47;;;;;;;43.97;10.30;;;;;;;;;;4453237;32;20271;-88
2022/10/25 14:11:17;;;;;;;39.95;9.77;;;;;;;;;;4453379;32;20224;-90
2022/10/25 14:13:50;;;;;;;26.15;8.07;;;;;;;;;;4454342;32;20208;-90
2022/10/25 14:16:24;;;;;;;22.10;7.93;;;;;;;;;;4452972;32;20301;-89
2022/10/25 14:18:54;;;;;;;29.90;10.55;;;;;;;;;;4453553;32;20716;-88
2022/10/25 14:21:24;;;;;;;28.55;9.43;;;;;;;;;;4452796;32;20224;-88
2022/10/25 14:23:51;;;;;;;29.23;9.77;;;;;;;;;;4453144;32;20241;-88
2022/10/25 14:26:20;;;;;;;45.38;12.52;;;;;;;;;;4452592;32;20734;-88
2022/10/25 14:28:47;;;;;;;31.23;9.45;;;;;;;;;;4452932;32;20236;-88
2022/10/25 14:31:18;;;;;;;36.30;10.13;;;;;;;;;;4452606;32;20242;-87
2022/10/25 14:33:50;;;;;;;47.95;11.38;;;;;;;;;;4452167;32;20277;-87
2022/10/25 14:36:26;;;;;;;38.03;11.30;;;;;;;;;;4452477;32;20666;-88
2022/10/25 14:38:55;;;;;;;28.98;11.68;;;;;;;;;;4452874;32;20269;-89
2022/10/25 14:41:23;;;;;;;36.70;12.25;;;;;;;;;;4452324;32;20334;-90
2022/10/25 14:43:51;;;;;;;44.20;11.38;;;;;;;;;;4453354;32;20208;-88